Alexandria, VA (22312)

4:28 PM EST on January 27, 2015 (GMT -0500)
PBS Technology Center | Change Station
CLOSE
Current Station
Personal Weather Station
Location: Springfield, VA
Elevation: 170 ft
Nearby Weather Stations

Elev 170 ft 38.79 °N, 77.17 °W | Updated 0 second ago

Overcast
Overcast
33.5 °F
Feels Like 27 °F
N
7.0
Wind Variable Wind from SSW
Gusts 22.0 mph

Today
High -- | Low -- °F
--% Chance of Precip.
Yesterday
High -- | Low -- °F
Precip. -- in
7:18 AM 5:24 PM
First Quarter, 57% visible
Pressure 29.84 in
Visibility 10.0 miles
Clouds Scattered Clouds 2900 ft
Mostly Cloudy 10000 ft
Windchill 27 °F
Dew Point 25 °F
Humidity 71%
Rainfall 0.05 in
Snow Depth Not available.
UV 0 out of 12
Pollen .30 out of 12
Air Quality Not available.
Flu Activity Not available.
SPECI KDCA 272123Z 32013G21KT 10SM SCT029 BKN100 02/M06 A2984 RMK AO2

More Conditions Fewer Conditions

Pressure 29.84 in
Visibility 10.0 miles
Clouds Scattered Clouds 2900 ft
Mostly Cloudy 10000 ft
Windchill 27 °F
Dew Point 25 °F
Humidity 71%
Rainfall 0.05 in
Snow Depth Not available.
UV 0 out of 12
Pollen .30 out of 12
Air Quality Not available.
Flu Activity Not available.
SPECI KDCA 272123Z 32013G21KT 10SM SCT029 BKN100 02/M06 A2984 RMK AO2

More Conditions Fewer Conditions

10-Day Weather Forecast

Almanac

Astronomy

Jan. 27, 2015 Rise Set
Actual Time
Civil Twilight
Nautical Twilight
Astronomical Twilight
Moon
Length of Visible Light
Length of Day
Tomorrow will be .
, % of the Moon is Illuminated

Today's Extremes

State Highs State Lows

Community

WunderPhotos

Upload Photos

1,790,914 photos uploaded!

WunderBlogs® & News

Nearby

Air Quality

  Air Quality AQ Index Pollutant
Not available.

Snow Depth

Station Depth Elevation

Earthquake Activity

City Distance Mag. Time & Date
Minimum magnitude displayed is 2.5.

Coastal Water Temperatures

Place Temperature

Nearby Weather Stations